Hicksville, OH

10:42 AM EDT on September 19, 2014 (GMT -0400)
Fort Wayne International | Change Station
CLOSE
Current Station
Airport
Location: Fort Wayne,
Elevation: 827 ft
Nearby Weather Stations

Elev 827 ft 40.98 °N, 85.19 °W | Updated 48 minutes ago

Clear
Clear
55 °F
Feels Like 55 °F
N
8
Wind Variable Wind from East

Today
High -- | Low -- °F
--% Chance of Precip.
Yesterday
High -- | Low -- °F
Precip. -- in
7:23 AM 7:41 PM
Waning Crescent, 19% visible
Pressure 30.24 in
Visibility 8.0 miles
Clouds Few 500 ft
Mostly Cloudy 24000 ft
Dew Point 54 °F
Humidity 94%
Rainfall 0.00 in
Snow Depth Not available.
UV 1 out of 12
Pollen 5.70 out of 12
Air Quality Not available.
Flu Activity Not available.
METAR KFWA 191354Z 09007KT 8SM FEW005 BKN240 13/12 A3024

More Conditions Fewer Conditions

Pressure 30.24 in
Visibility 8.0 miles
Clouds Few 500 ft
Mostly Cloudy 24000 ft
Dew Point 54 °F
Humidity 94%
Rainfall 0.00 in
Snow Depth Not available.
UV 1 out of 12
Pollen 5.70 out of 12
Air Quality Not available.
Flu Activity Not available.
METAR KFWA 191354Z 09007KT 8SM FEW005 BKN240 13/12 A3024

More Conditions Fewer Conditions

10-Day Weather Forecast

Almanac

Astronomy

Sep. 19, 2014 Rise Set
Actual Time 7:23 AM EDT 7:41 PM EDT
Civil Twilight 6:55 AM EDT 8:08 PM EDT
Nautical Twilight 6:23 AM EDT 8:41 PM EDT
Astronomical Twilight 5:50 AM EDT 9:14 PM EDT
Moon 3:05 AM EDT 5:11 PM EDT
Length of Visible Light 13h 13m
Length of Day
12h 17m
Tomorrow will be 2m 44s shorter.
Waning Crescent, 19% of the Moon is Illuminated
Today
Waning Crescent
Sep 24
New
Oct 1
First Quarter
Oct 8
Full
Oct 15
Last Quarter

Today's Extremes

State Highs State Lows

Community

WunderPhotos

Upload Photos

1,754,630 photos uploaded!

WunderBlogs® & News

Nearby

Snow Depth

Station Depth Elevation
No new snow has been reported.

Earthquake Activity

City Distance Mag. Time & Date
No recent earthquake activity has been reported nearby.
Minimum magnitude displayed is 2.5.

Coastal Water Temperatures

Place Temperature
No Stations Reporting

Nearby Weather Stations